sensor_id;sensor_type;location;lat;lon;timestamp;pressure;altitude;pressure_sealevel;temperature;humidity
59600;BME280;61855;55.030;73.326;2022-08-07T00:01:03;99864.81;;;19.03;70.34
59600;BME280;61855;55.030;73.326;2022-08-07T00:03:29;99855.56;;;19.04;70.20
59600;BME280;61855;55.030;73.326;2022-08-07T00:05:56;99848.41;;;19.03;70.43
59600;BME280;61855;55.030;73.326;2022-08-07T00:08:22;99843.31;;;19.06;70.20
59600;BME280;61855;55.030;73.326;2022-08-07T00:10:48;99836.53;;;19.09;70.30
59600;BME280;61855;55.030;73.326;2022-08-07T00:13:15;99828.91;;;19.11;69.99
59600;BME280;61855;55.030;73.326;2022-08-07T00:15:53;99829.72;;;19.11;69.92
59600;BME280;61855;55.030;73.326;2022-08-07T00:18:22;99822.22;;;19.07;69.95
59600;BME280;61855;55.030;73.326;2022-08-07T00:20:48;99830.66;;;19.17;69.81
59600;BME280;61855;55.030;73.326;2022-08-07T00:23:15;99828.28;;;19.20;70.01
59600;BME280;61855;55.030;73.326;2022-08-07T00:25:41;99820.78;;;19.27;69.58
59600;BME280;61855;55.030;73.326;2022-08-07T00:28:07;99820.19;;;19.37;69.64
59600;BME280;61855;55.030;73.326;2022-08-07T00:30:33;99817.63;;;19.47;69.45
59600;BME280;61855;55.030;73.326;2022-08-07T00:33:00;99823.88;;;19.59;69.04
59600;BME280;61855;55.030;73.326;2022-08-07T00:35:27;99813.72;;;19.71;68.82
59600;BME280;61855;55.030;73.326;2022-08-07T00:37:55;99803.53;;;19.83;68.39
59600;BME280;61855;55.030;73.326;2022-08-07T00:40:21;99801.56;;;19.95;67.89
59600;BME280;61855;55.030;73.326;2022-08-07T00:42:47;99801.47;;;20.07;67.27
59600;BME280;61855;55.030;73.326;2022-08-07T00:45:14;99819.09;;;20.11;67.04
59600;BME280;61855;55.030;73.326;2022-08-07T00:47:45;99842.16;;;19.98;68.37
59600;BME280;61855;55.030;73.326;2022-08-07T00:50:11;99850.66;;;19.57;70.29
59600;BME280;61855;55.030;73.326;2022-08-07T00:52:37;99842.16;;;19.30;71.83
59600;BME280;61855;55.030;73.326;2022-08-07T00:55:08;99843.91;;;19.08;73.23
59600;BME280;61855;55.030;73.326;2022-08-07T00:57:35;99860.69;;;18.77;76.06
59600;BME280;61855;55.030;73.326;2022-08-07T01:00:04;99843.00;;;18.56;78.90
59600;BME280;61855;55.030;73.326;2022-08-07T01:02:30;99873.22;;;18.32;78.88
59600;BME280;61855;55.030;73.326;2022-08-07T01:04:57;99897.38;;;18.05;80.87
59600;BME280;61855;55.030;73.326;2022-08-07T01:07:25;99887.56;;;17.86;83.09
59600;BME280;61855;55.030;73.326;2022-08-07T01:09:52;99888.63;;;17.55;85.87
59600;BME280;61855;55.030;73.326;2022-08-07T01:12:18;99882.63;;;17.28;88.73
59600;BME280;61855;55.030;73.326;2022-08-07T01:14:44;99894.25;;;16.81;96.27
59600;BME280;61855;55.030;73.326;2022-08-07T01:17:11;99898.53;;;16.46;96.52
59600;BME280;61855;55.030;73.326;2022-08-07T01:19:38;99883.47;;;16.18;98.96
59600;BME280;61855;55.030;73.326;2022-08-07T01:22:08;62956.78;;;23.19;100.00
59600;BME280;61855;55.030;73.326;2022-08-07T01:24:38;62956.78;;;16.72;100.00
59600;BME280;61855;55.030;73.326;2022-08-07T01:27:05;62956.78;;;-141.76;100.00
59600;BME280;61855;55.030;73.326;2022-08-07T01:29:32;98552.72;;;15.80;100.00
59600;BME280;61855;55.030;73.326;2022-08-07T01:31:59;62956.78;;;-141.76;100.00
59600;BME280;61855;55.030;73.326;2022-08-07T01:34:31;62956.78;;;-141.76;100.00
59600;BME280;61855;55.030;73.326;2022-08-07T01:37:08;62956.78;;;-141.76;100.00
59600;BME280;61855;55.030;73.326;2022-08-07T01:39:38;99917.69;;;15.70;nan
59600;BME280;61855;55.030;73.326;2022-08-07T01:42:15;99950.72;;;15.74;nan
59600;BME280;61855;55.030;73.326;2022-08-07T01:44:41;62956.78;;;-141.76;100.00
59600;BME280;61855;55.030;73.326;2022-08-07T01:47:08;99941.13;;;15.71;nan
59600;BME280;61855;55.030;73.326;2022-08-07T01:49:37;99958.88;;;15.74;nan
59600;BME280;61855;55.030;73.326;2022-08-07T01:52:04;62956.78;;;-141.76;100.00
59600;BME280;61855;55.030;73.326;2022-08-07T01:54:35;62956.78;;;-141.76;100.00
59600;BME280;61855;55.030;73.326;2022-08-07T01:57:13;62956.78;;;-141.76;100.00
59600;BME280;61855;55.030;73.326;2022-08-07T01:59:50;62956.78;;;-141.76;100.00
59600;BME280;61855;55.030;73.326;2022-08-07T02:02:28;62956.78;;;-141.76;100.00
59600;BME280;61855;55.030;73.326;2022-08-07T02:04:58;62956.78;;;-141.76;100.00
59600;BME280;61855;55.030;73.326;2022-08-07T02:07:38;62956.78;;;-141.76;100.00
59600;BME280;61855;55.030;73.326;2022-08-07T02:10:05;62956.78;;;-141.76;100.00
59600;BME280;61855;55.030;73.326;2022-08-07T02:12:39;62956.78;;;-141.76;100.00
59600;BME280;61855;55.030;73.326;2022-08-07T02:15:11;62956.78;;;-141.76;100.00
59600;BME280;61855;55.030;73.326;2022-08-07T02:17:42;62956.78;;;-141.76;100.00
59600;BME280;61855;55.030;73.326;2022-08-07T02:20:10;62956.78;;;-141.76;100.00
59600;BME280;61855;55.030;73.326;2022-08-07T02:22:39;62956.78;;;-141.76;100.00
59600;BME280;61855;55.030;73.326;2022-08-07T02:25:07;62956.78;;;-141.76;100.00
59600;BME280;61855;55.030;73.326;2022-08-07T02:27:34;62956.78;;;-141.76;100.00
59600;BME280;61855;55.030;73.326;2022-08-07T02:30:04;62956.78;;;-141.76;100.00
59600;BME280;61855;55.030;73.326;2022-08-07T02:32:34;62956.78;;;-141.76;100.00
59600;BME280;61855;55.030;73.326;2022-08-07T02:35:04;62956.78;;;-141.76;100.00
59600;BME280;61855;55.030;73.326;2022-08-07T02:37:44;62956.78;;;-141.76;100.00
59600;BME280;61855;55.030;73.326;2022-08-07T02:40:12;62956.78;;;-141.76;100.00
59600;BME280;61855;55.030;73.326;2022-08-07T02:42:41;62956.78;;;-141.76;100.00
59600;BME280;61855;55.030;73.326;2022-08-07T02:45:13;62956.78;;;-141.76;100.00
59600;BME280;61855;55.030;73.326;2022-08-07T02:47:41;62956.78;;;-141.76;100.00
59600;BME280;61855;55.030;73.326;2022-08-07T02:50:13;62956.78;;;-141.76;100.00
59600;BME280;61855;55.030;73.326;2022-08-07T02:52:44;62956.78;;;-141.76;100.00
59600;BME280;61855;55.030;73.326;2022-08-07T02:55:24;62956.78;;;-141.76;100.00
59600;BME280;61855;55.030;73.326;2022-08-07T02:57:52;62956.78;;;-141.76;100.00
59600;BME280;61855;55.030;73.326;2022-08-07T03:00:19;62956.78;;;-141.76;100.00
59600;BME280;61855;55.030;73.326;2022-08-07T03:02:47;62956.78;;;-141.76;100.00
59600;BME280;61855;55.030;73.326;2022-08-07T03:05:16;62956.78;;;-141.76;100.00
59600;BME280;61855;55.030;73.326;2022-08-07T03:07:49;62956.78;;;-141.76;100.00
59600;BME280;61855;55.030;73.326;2022-08-07T03:10:27;62956.78;;;-141.76;100.00
59600;BME280;61855;55.030;73.326;2022-08-07T03:12:55;62956.78;;;-141.76;100.00
59600;BME280;61855;55.030;73.326;2022-08-07T03:15:21;62956.78;;;-141.76;100.00
59600;BME280;61855;55.030;73.326;2022-08-07T03:17:48;62956.78;;;-141.76;100.00
59600;BME280;61855;55.030;73.326;2022-08-07T03:20:19;62956.78;;;-141.76;100.00
59600;BME280;61855;55.030;73.326;2022-08-07T03:22:53;62956.78;;;-141.76;100.00
59600;BME280;61855;55.030;73.326;2022-08-07T03:25:20;62956.78;;;-141.76;100.00
59600;BME280;61855;55.030;73.326;2022-08-07T03:27:53;62956.78;;;-141.76;100.00
59600;BME280;61855;55.030;73.326;2022-08-07T03:30:21;62956.78;;;-141.76;100.00
59600;BME280;61855;55.030;73.326;2022-08-07T03:32:50;62956.78;;;-141.76;100.00
59600;BME280;61855;55.030;73.326;2022-08-07T03:35:22;62956.78;;;-141.76;100.00
59600;BME280;61855;55.030;73.326;2022-08-07T03:37:52;62956.78;;;-141.76;100.00
59600;BME280;61855;55.030;73.326;2022-08-07T03:40:27;62956.78;;;-141.76;100.00
59600;BME280;61855;55.030;73.326;2022-08-07T03:42:56;62956.78;;;-141.76;100.00
59600;BME280;61855;55.030;73.326;2022-08-07T03:45:24;62956.78;;;-141.76;100.00
59600;BME280;61855;55.030;73.326;2022-08-07T03:47:53;62956.78;;;-141.76;100.00
59600;BME280;61855;55.030;73.326;2022-08-07T03:50:21;62956.78;;;-141.76;100.00
59600;BME280;61855;55.030;73.326;2022-08-07T03:52:52;62956.78;;;-141.76;100.00
59600;BME280;61855;55.030;73.326;2022-08-07T03:55:27;62956.78;;;-141.76;100.00
59600;BME280;61855;55.030;73.326;2022-08-07T03:57:56;62956.78;;;-141.76;100.00
59600;BME280;61855;55.030;73.326;2022-08-07T04:00:35;62956.78;;;-141.76;100.00
59600;BME280;61855;55.030;73.326;2022-08-07T04:03:04;62956.78;;;-141.76;100.00
59600;BME280;61855;55.030;73.326;2022-08-07T04:05:34;62956.78;;;-141.76;100.00
59600;BME280;61855;55.030;73.326;2022-08-07T04:08:02;62956.78;;;-141.76;100.00
59600;BME280;61855;55.030;73.326;2022-08-07T04:10:30;62956.78;;;-141.76;100.00
59600;BME280;61855;55.030;73.326;2022-08-07T04:12:56;62956.78;;;-141.76;100.00
59600;BME280;61855;55.030;73.326;2022-08-07T04:15:33;62956.78;;;-141.76;100.00
59600;BME280;61855;55.030;73.326;2022-08-07T04:18:01;62956.78;;;-141.76;100.00
59600;BME280;61855;55.030;73.326;2022-08-07T04:20:27;62956.78;;;-141.76;100.00
59600;BME280;61855;55.030;73.326;2022-08-07T04:22:54;62956.78;;;-141.76;100.00
59600;BME280;61855;55.030;73.326;2022-08-07T04:25:22;62956.78;;;-141.76;100.00
59600;BME280;61855;55.030;73.326;2022-08-07T04:27:49;62956.78;;;-141.76;100.00
59600;BME280;61855;55.030;73.326;2022-08-07T04:30:16;62956.78;;;-141.76;100.00
59600;BME280;61855;55.030;73.326;2022-08-07T04:32:49;62956.78;;;-141.76;100.00
59600;BME280;61855;55.030;73.326;2022-08-07T04:35:18;62956.78;;;-141.76;100.00
59600;BME280;61855;55.030;73.326;2022-08-07T04:37:50;62956.78;;;-141.76;100.00
59600;BME280;61855;55.030;73.326;2022-08-07T04:40:16;62956.78;;;-141.76;100.00
59600;BME280;61855;55.030;73.326;2022-08-07T04:42:44;62956.78;;;-141.76;100.00
59600;BME280;61855;55.030;73.326;2022-08-07T04:45:24;62956.78;;;-141.76;100.00
59600;BME280;61855;55.030;73.326;2022-08-07T04:50:37;62956.78;;;-141.76;100.00
59600;BME280;61855;55.030;73.326;2022-08-07T04:56:01;62956.78;;;-141.76;100.00
59600;BME280;61855;55.030;73.326;2022-08-07T04:58:45;62956.78;;;-141.76;100.00
59600;BME280;61855;55.030;73.326;2022-08-07T05:04:07;62956.78;;;-141.76;100.00
59600;BME280;61855;55.030;73.326;2022-08-07T05:07:11;62956.78;;;-141.76;100.00
59600;BME280;61855;55.030;73.326;2022-08-07T05:09:52;62956.78;;;-141.76;100.00
59600;BME280;61855;55.030;73.326;2022-08-07T05:12:29;62956.78;;;-141.76;100.00
59600;BME280;61855;55.030;73.326;2022-08-07T05:15:13;62956.78;;;-141.76;100.00
59600;BME280;61855;55.030;73.326;2022-08-07T05:17:50;62956.78;;;-141.76;100.00
59600;BME280;61855;55.030;73.326;2022-08-07T05:20:23;62956.78;;;-141.76;100.00
59600;BME280;61855;55.030;73.326;2022-08-07T05:23:10;62956.78;;;-141.76;100.00
59600;BME280;61855;55.030;73.326;2022-08-07T05:25:41;62956.78;;;-141.76;100.00
59600;BME280;61855;55.030;73.326;2022-08-07T05:28:19;62956.78;;;-141.76;100.00
59600;BME280;61855;55.030;73.326;2022-08-07T05:30:47;62956.78;;;-141.76;100.00
59600;BME280;61855;55.030;73.326;2022-08-07T05:33:19;62956.78;;;-141.76;100.00
59600;BME280;61855;55.030;73.326;2022-08-07T05:35:49;62956.78;;;-141.76;100.00
59600;BME280;61855;55.030;73.326;2022-08-07T05:38:18;62956.78;;;-141.76;100.00
59600;BME280;61855;55.030;73.326;2022-08-07T05:40:47;62956.78;;;-141.76;100.00
59600;BME280;61855;55.030;73.326;2022-08-07T05:43:15;62956.78;;;-141.76;100.00
59600;BME280;61855;55.030;73.326;2022-08-07T05:45:42;62956.78;;;-141.76;100.00
59600;BME280;61855;55.030;73.326;2022-08-07T05:48:17;62956.78;;;-141.76;100.00
59600;BME280;61855;55.030;73.326;2022-08-07T05:50:50;62956.78;;;-141.76;100.00
59600;BME280;61855;55.030;73.326;2022-08-07T05:53:17;62956.78;;;-141.76;100.00
59600;BME280;61855;55.030;73.326;2022-08-07T05:55:44;62956.78;;;-141.76;100.00
59600;BME280;61855;55.030;73.326;2022-08-07T05:58:23;62956.78;;;-141.76;100.00
59600;BME280;61855;55.030;73.326;2022-08-07T06:00:51;62956.78;;;-141.76;100.00
59600;BME280;61855;55.030;73.326;2022-08-07T06:03:21;62956.78;;;-141.76;100.00
59600;BME280;61855;55.030;73.326;2022-08-07T06:05:49;62956.78;;;-141.76;100.00
59600;BME280;61855;55.030;73.326;2022-08-07T06:08:16;62956.78;;;-141.76;100.00
59600;BME280;61855;55.030;73.326;2022-08-07T06:10:43;62956.78;;;-141.76;100.00
59600;BME280;61855;55.030;73.326;2022-08-07T06:13:21;62956.78;;;-141.76;100.00
59600;BME280;61855;55.030;73.326;2022-08-07T06:15:48;62956.78;;;-141.76;100.00
59600;BME280;61855;55.030;73.326;2022-08-07T06:18:31;62956.78;;;-141.76;100.00
59600;BME280;61855;55.030;73.326;2022-08-07T06:21:03;62956.78;;;-141.76;100.00
59600;BME280;61855;55.030;73.326;2022-08-07T06:23:36;62956.78;;;-141.76;100.00
59600;BME280;61855;55.030;73.326;2022-08-07T06:26:12;62956.78;;;-141.76;100.00
59600;BME280;61855;55.030;73.326;2022-08-07T06:28:49;62956.78;;;-141.76;100.00
59600;BME280;61855;55.030;73.326;2022-08-07T06:31:26;62956.78;;;-141.76;100.00
59600;BME280;61855;55.030;73.326;2022-08-07T06:33:54;62956.78;;;-141.76;100.00
59600;BME280;61855;55.030;73.326;2022-08-07T06:36:24;62956.78;;;-141.76;100.00
59600;BME280;61855;55.030;73.326;2022-08-07T06:38:56;62956.78;;;-141.76;100.00
59600;BME280;61855;55.030;73.326;2022-08-07T06:41:34;62956.78;;;-141.76;100.00
59600;BME280;61855;55.030;73.326;2022-08-07T06:44:04;62956.78;;;-141.76;100.00
59600;BME280;61855;55.030;73.326;2022-08-07T06:46:33;62956.78;;;-141.76;100.00
59600;BME280;61855;55.030;73.326;2022-08-07T06:49:09;62956.78;;;-141.76;100.00
59600;BME280;61855;55.030;73.326;2022-08-07T06:51:42;62956.78;;;-141.76;100.00
59600;BME280;61855;55.030;73.326;2022-08-07T06:54:13;62956.78;;;-141.76;100.00
59600;BME280;61855;55.030;73.326;2022-08-07T06:56:41;62956.78;;;-141.76;100.00
59600;BME280;61855;55.030;73.326;2022-08-07T06:59:19;62956.78;;;-141.76;100.00
59600;BME280;61855;55.030;73.326;2022-08-07T07:01:52;62956.78;;;-141.76;100.00
59600;BME280;61855;55.030;73.326;2022-08-07T07:04:21;62956.78;;;-141.76;100.00
59600;BME280;61855;55.030;73.326;2022-08-07T07:06:50;62956.78;;;-141.76;100.00
59600;BME280;61855;55.030;73.326;2022-08-07T07:18:01;62956.78;;;-141.76;100.00
59600;BME280;61855;55.030;73.326;2022-08-07T07:20:33;62956.78;;;-141.76;100.00
59600;BME280;61855;55.030;73.326;2022-08-07T07:23:00;62956.78;;;-141.76;100.00
59600;BME280;61855;55.030;73.326;2022-08-07T07:25:27;62956.78;;;-141.76;100.00
59600;BME280;61855;55.030;73.326;2022-08-07T07:28:07;62956.78;;;-141.76;100.00
59600;BME280;61855;55.030;73.326;2022-08-07T07:30:40;62956.78;;;-141.76;100.00
59600;BME280;61855;55.030;73.326;2022-08-07T07:33:13;62956.78;;;-141.76;100.00
59600;BME280;61855;55.030;73.326;2022-08-07T07:35:45;62956.78;;;-141.76;100.00
59600;BME280;61855;55.030;73.326;2022-08-07T07:38:13;62956.78;;;-141.76;100.00
59600;BME280;61855;55.030;73.326;2022-08-07T07:40:41;62956.78;;;-141.76;100.00
59600;BME280;61855;55.030;73.326;2022-08-07T07:43:09;62956.78;;;-141.76;100.00
59600;BME280;61855;55.030;73.326;2022-08-07T07:45:48;62956.78;;;-141.76;100.00
59600;BME280;61855;55.030;73.326;2022-08-07T07:48:19;62956.78;;;-141.76;100.00
59600;BME280;61855;55.030;73.326;2022-08-07T07:50:50;62956.78;;;-141.76;100.00
59600;BME280;61855;55.030;73.326;2022-08-07T07:53:22;62956.78;;;-141.76;100.00
59600;BME280;61855;55.030;73.326;2022-08-07T07:55:57;62956.78;;;-141.76;100.00
59600;BME280;61855;55.030;73.326;2022-08-07T07:58:34;62956.78;;;-141.76;100.00
59600;BME280;61855;55.030;73.326;2022-08-07T08:01:09;62956.78;;;-141.76;100.00
59600;BME280;61855;55.030;73.326;2022-08-07T08:03:37;62956.78;;;-141.76;100.00
59600;BME280;61855;55.030;73.326;2022-08-07T08:06:05;62956.78;;;-141.76;100.00
59600;BME280;61855;55.030;73.326;2022-08-07T08:08:39;62956.78;;;-141.76;100.00
59600;BME280;61855;55.030;73.326;2022-08-07T08:11:08;62956.78;;;-141.76;100.00
59600;BME280;61855;55.030;73.326;2022-08-07T08:13:42;62956.78;;;-141.76;100.00
59600;BME280;61855;55.030;73.326;2022-08-07T08:16:19;62956.78;;;-141.76;100.00
59600;BME280;61855;55.030;73.326;2022-08-07T08:18:50;62956.78;;;-141.76;100.00
59600;BME280;61855;55.030;73.326;2022-08-07T08:21:18;62956.78;;;-141.76;100.00
59600;BME280;61855;55.030;73.326;2022-08-07T08:24:04;62956.78;;;-141.76;100.00
59600;BME280;61855;55.030;73.326;2022-08-07T08:26:56;62956.78;;;-141.76;100.00
59600;BME280;61855;55.030;73.326;2022-08-07T08:29:32;62956.78;;;-141.76;100.00
59600;BME280;61855;55.030;73.326;2022-08-07T08:32:03;62956.78;;;-141.76;100.00
59600;BME280;61855;55.030;73.326;2022-08-07T08:34:32;62956.78;;;-141.76;100.00
59600;BME280;61855;55.030;73.326;2022-08-07T08:37:02;62956.78;;;-141.76;100.00
59600;BME280;61855;55.030;73.326;2022-08-07T08:39:30;62956.78;;;-141.76;100.00
59600;BME280;61855;55.030;73.326;2022-08-07T08:42:08;62956.78;;;-141.76;100.00
59600;BME280;61855;55.030;73.326;2022-08-07T08:45:02;62956.78;;;-141.76;100.00
59600;BME280;61855;55.030;73.326;2022-08-07T08:47:37;62956.78;;;-141.76;100.00
59600;BME280;61855;55.030;73.326;2022-08-07T08:52:38;62956.78;;;-141.76;100.00
59600;BME280;61855;55.030;73.326;2022-08-07T08:55:32;62956.78;;;-141.76;100.00
59600;BME280;61855;55.030;73.326;2022-08-07T09:00:50;62956.78;;;-141.76;100.00
59600;BME280;61855;55.030;73.326;2022-08-07T09:03:31;62956.78;;;-141.76;100.00
59600;BME280;61855;55.030;73.326;2022-08-07T09:06:07;62956.78;;;-141.76;100.00
59600;BME280;61855;55.030;73.326;2022-08-07T09:14:26;62956.78;;;-141.76;100.00
59600;BME280;61855;55.030;73.326;2022-08-07T09:17:29;62956.78;;;-141.76;100.00
59600;BME280;61855;55.030;73.326;2022-08-07T09:23:17;62956.78;;;-141.76;100.00
59600;BME280;61855;55.030;73.326;2022-08-07T09:28:53;62956.78;;;-141.76;100.00
59600;BME280;61855;55.030;73.326;2022-08-07T09:34:48;62956.78;;;-141.76;100.00
59600;BME280;61855;55.030;73.326;2022-08-07T09:37:05;62956.78;;;-141.76;100.00
59600;BME280;61855;55.030;73.326;2022-08-07T09:39:57;62956.78;;;-141.76;100.00
59600;BME280;61855;55.030;73.326;2022-08-07T09:48:53;62956.78;;;-141.76;100.00
59600;BME280;61855;55.030;73.326;2022-08-07T09:54:22;62956.78;;;-141.76;100.00
59600;BME280;61855;55.030;73.326;2022-08-07T10:00:10;62956.78;;;-141.76;100.00
59600;BME280;61855;55.030;73.326;2022-08-07T10:08:40;62956.78;;;-141.76;100.00
59600;BME280;61855;55.030;73.326;2022-08-07T10:24:59;62956.78;;;-141.76;100.00
59600;BME280;61855;55.030;73.326;2022-08-07T10:30:49;62956.78;;;-141.76;100.00
59600;BME280;61855;55.030;73.326;2022-08-07T10:33:29;62956.78;;;-141.76;100.00
59600;BME280;61855;55.030;73.326;2022-08-07T10:46:52;62956.78;;;-141.76;100.00
59600;BME280;61855;55.030;73.326;2022-08-07T10:49:39;62956.78;;;-141.76;100.00
59600;BME280;61855;55.030;73.326;2022-08-07T10:52:27;62956.78;;;-141.76;100.00
59600;BME280;61855;55.030;73.326;2022-08-07T10:57:55;62956.78;;;-141.76;100.00
59600;BME280;61855;55.030;73.326;2022-08-07T11:00:30;62956.78;;;-141.76;100.00
59600;BME280;61855;55.030;73.326;2022-08-07T11:03:41;62956.78;;;-141.76;100.00
59600;BME280;61855;55.030;73.326;2022-08-07T11:06:18;62956.78;;;-141.76;100.00
59600;BME280;61855;55.030;73.326;2022-08-07T11:09:02;62956.78;;;-141.76;100.00
59600;BME280;61855;55.030;73.326;2022-08-07T11:11:34;62956.78;;;-141.76;100.00
59600;BME280;61855;55.030;73.326;2022-08-07T11:14:11;62956.78;;;-141.76;100.00
59600;BME280;61855;55.030;73.326;2022-08-07T11:16:53;62956.78;;;-141.76;100.00
59600;BME280;61855;55.030;73.326;2022-08-07T11:19:44;62956.78;;;-141.76;100.00
59600;BME280;61855;55.030;73.326;2022-08-07T11:25:10;62956.78;;;-141.76;100.00
59600;BME280;61855;55.030;73.326;2022-08-07T11:31:54;62956.78;;;-141.76;100.00
59600;BME280;61855;55.030;73.326;2022-08-07T11:38:06;62956.78;;;-141.76;100.00
59600;BME280;61855;55.030;73.326;2022-08-07T11:40:28;62956.78;;;-141.76;100.00
59600;BME280;61855;55.030;73.326;2022-08-07T11:54:51;62956.78;;;-141.76;100.00
59600;BME280;61855;55.030;73.326;2022-08-07T11:57:39;62956.78;;;-141.76;100.00
59600;BME280;61855;55.030;73.326;2022-08-07T12:00:10;62956.78;;;-141.76;100.00
59600;BME280;61855;55.030;73.326;2022-08-07T12:08:40;62956.78;;;-141.76;100.00
59600;BME280;61855;55.030;73.326;2022-08-07T12:11:14;62956.78;;;-141.76;100.00
59600;BME280;61855;55.030;73.326;2022-08-07T12:13:47;62956.78;;;-141.76;100.00
59600;BME280;61855;55.030;73.326;2022-08-07T12:16:19;62956.78;;;-141.76;100.00
59600;BME280;61855;55.030;73.326;2022-08-07T12:21:40;62956.78;;;-141.76;100.00
59600;BME280;61855;55.030;73.326;2022-08-07T12:24:19;62956.78;;;-141.76;100.00
59600;BME280;61855;55.030;73.326;2022-08-07T12:26:56;62956.78;;;-141.76;100.00
59600;BME280;61855;55.030;73.326;2022-08-07T12:29:40;62956.78;;;-141.76;100.00
59600;BME280;61855;55.030;73.326;2022-08-07T12:32:20;62956.78;;;-141.76;100.00
59600;BME280;61855;55.030;73.326;2022-08-07T12:34:50;62956.78;;;-141.76;100.00
59600;BME280;61855;55.030;73.326;2022-08-07T12:37:18;62956.78;;;-141.76;100.00
59600;BME280;61855;55.030;73.326;2022-08-07T12:39:47;62956.78;;;-141.76;100.00
59600;BME280;61855;55.030;73.326;2022-08-07T12:42:20;62956.78;;;-141.76;100.00
59600;BME280;61855;55.030;73.326;2022-08-07T12:44:48;62956.78;;;-141.76;100.00
59600;BME280;61855;55.030;73.326;2022-08-07T12:50:36;62956.78;;;-141.76;100.00
59600;BME280;61855;55.030;73.326;2022-08-07T12:53:14;62956.78;;;-141.76;100.00
59600;BME280;61855;55.030;73.326;2022-08-07T12:58:45;62956.78;;;-141.76;100.00
59600;BME280;61855;55.030;73.326;2022-08-07T13:07:35;62956.78;;;-141.76;100.00
59600;BME280;61855;55.030;73.326;2022-08-07T13:10:29;62956.78;;;-141.76;100.00
59600;BME280;61855;55.030;73.326;2022-08-07T13:13:30;62956.78;;;-141.76;100.00
59600;BME280;61855;55.030;73.326;2022-08-07T13:16:26;62956.78;;;-141.76;100.00
59600;BME280;61855;55.030;73.326;2022-08-07T13:22:09;62956.78;;;-141.76;100.00
59600;BME280;61855;55.030;73.326;2022-08-07T13:24:49;62956.78;;;-141.76;100.00
59600;BME280;61855;55.030;73.326;2022-08-07T13:27:36;62956.78;;;-141.76;100.00
59600;BME280;61855;55.030;73.326;2022-08-07T13:30:26;62956.78;;;-141.76;100.00
59600;BME280;61855;55.030;73.326;2022-08-07T13:35:38;62956.78;;;-141.76;100.00
59600;BME280;61855;55.030;73.326;2022-08-07T13:38:23;62956.78;;;-141.76;100.00
59600;BME280;61855;55.030;73.326;2022-08-07T13:43:31;62956.78;;;-141.76;100.00
59600;BME280;61855;55.030;73.326;2022-08-07T13:46:11;62956.78;;;-141.76;100.00
59600;BME280;61855;55.030;73.326;2022-08-07T13:48:43;62956.78;;;-141.76;100.00
59600;BME280;61855;55.030;73.326;2022-08-07T13:51:15;62956.78;;;-141.76;100.00
59600;BME280;61855;55.030;73.326;2022-08-07T13:53:50;62956.78;;;-141.76;100.00
59600;BME280;61855;55.030;73.326;2022-08-07T13:56:22;62956.78;;;-141.76;100.00
59600;BME280;61855;55.030;73.326;2022-08-07T13:58:51;62956.78;;;-141.76;100.00
59600;BME280;61855;55.030;73.326;2022-08-07T14:01:33;62956.78;;;-141.76;100.00
59600;BME280;61855;55.030;73.326;2022-08-07T14:04:07;62956.78;;;-141.76;100.00
59600;BME280;61855;55.030;73.326;2022-08-07T14:06:41;62956.78;;;-141.76;100.00
59600;BME280;61855;55.030;73.326;2022-08-07T14:11:55;62956.78;;;-141.76;100.00
59600;BME280;61855;55.030;73.326;2022-08-07T14:14:30;62956.78;;;-141.76;100.00
59600;BME280;61855;55.030;73.326;2022-08-07T14:17:04;62956.78;;;-141.76;100.00
59600;BME280;61855;55.030;73.326;2022-08-07T14:19:35;62956.78;;;-141.76;100.00
59600;BME280;61855;55.030;73.326;2022-08-07T14:22:05;62956.78;;;-141.76;100.00
59600;BME280;61855;55.030;73.326;2022-08-07T14:24:50;62956.78;;;-141.76;100.00
59600;BME280;61855;55.030;73.326;2022-08-07T14:27:24;62956.78;;;-141.76;100.00
59600;BME280;61855;55.030;73.326;2022-08-07T14:29:55;62956.78;;;-141.76;100.00
59600;BME280;61855;55.030;73.326;2022-08-07T14:32:23;62956.78;;;-141.76;100.00
59600;BME280;61855;55.030;73.326;2022-08-07T14:34:52;62956.78;;;-141.76;100.00
59600;BME280;61855;55.030;73.326;2022-08-07T14:37:19;62956.78;;;-141.76;100.00
59600;BME280;61855;55.030;73.326;2022-08-07T14:39:47;62956.78;;;-141.76;100.00
59600;BME280;61855;55.030;73.326;2022-08-07T14:42:22;62956.78;;;-141.76;100.00
59600;BME280;61855;55.030;73.326;2022-08-07T14:44:51;62956.78;;;-141.76;100.00
59600;BME280;61855;55.030;73.326;2022-08-07T14:47:19;62956.78;;;-141.76;100.00
59600;BME280;61855;55.030;73.326;2022-08-07T14:49:46;62956.78;;;-141.76;100.00
59600;BME280;61855;55.030;73.326;2022-08-07T14:52:15;62956.78;;;-141.76;100.00
59600;BME280;61855;55.030;73.326;2022-08-07T14:54:43;62956.78;;;-141.76;100.00
59600;BME280;61855;55.030;73.326;2022-08-07T14:57:12;62956.78;;;-141.76;100.00
59600;BME280;61855;55.030;73.326;2022-08-07T14:59:40;62956.78;;;-141.76;100.00
59600;BME280;61855;55.030;73.326;2022-08-07T15:02:11;62956.78;;;-141.76;100.00
59600;BME280;61855;55.030;73.326;2022-08-07T15:04:43;62956.78;;;-141.76;100.00
59600;BME280;61855;55.030;73.326;2022-08-07T15:07:21;62956.78;;;-141.76;100.00
59600;BME280;61855;55.030;73.326;2022-08-07T15:09:51;62956.78;;;-141.76;100.00
59600;BME280;61855;55.030;73.326;2022-08-07T15:12:34;62956.78;;;-141.76;100.00
59600;BME280;61855;55.030;73.326;2022-08-07T15:15:07;62956.78;;;-141.76;100.00